createdAt,value
2023-03-22T00:04:16.176Z,22.77
2023-03-22T00:09:18.298Z,23.48
2023-03-22T00:14:19.726Z,23.20
2023-03-22T00:19:21.183Z,23.30
2023-03-22T00:24:22.988Z,23.25
2023-03-22T00:29:24.472Z,20.98
2023-03-22T00:34:27.115Z,20.83
2023-03-22T00:39:28.591Z,23.35
2023-03-22T00:44:30.156Z,23.13
2023-03-22T00:49:31.617Z,21.40
2023-03-22T00:54:33.117Z,21.95
2023-03-22T00:59:38.450Z,20.67
2023-03-22T01:04:45.769Z,21.83
2023-03-22T01:09:51.948Z,22.25
2023-03-22T01:14:53.370Z,22.30
2023-03-22T01:19:54.805Z,22.38
2023-03-22T01:24:56.309Z,21.25
2023-03-22T01:29:57.755Z,22.40
2023-03-22T01:34:59.224Z,21.33
2023-03-22T01:40:00.728Z,21.67
2023-03-22T01:45:14.330Z,21.38
2023-03-22T01:50:17.361Z,20.30
2023-03-22T01:55:22.655Z,21.23
2023-03-22T02:00:24.174Z,22.02
2023-03-22T02:05:26.416Z,21.70
2023-03-22T02:10:28.562Z,21.63
2023-03-22T02:15:33.882Z,21.25
2023-03-22T02:20:53.005Z,20.80
2023-03-22T02:31:27.868Z,21.67
2023-03-22T02:36:40.224Z,21.10
2023-03-22T02:41:47.808Z,21.40
2023-03-22T02:47:34.278Z,21.02
2023-03-22T02:52:54.420Z,21.73
2023-03-22T02:57:58.356Z,21.08
2023-03-22T03:03:11.342Z,21.23
2023-03-22T03:08:15.454Z,21.63
2023-03-22T03:13:19.135Z,20.30
2023-03-22T03:18:41.277Z,21.13
2023-03-22T03:23:56.043Z,20.98
2023-03-22T03:29:00.724Z,21.67
2023-03-22T03:34:19.373Z,22.88
2023-03-22T03:39:24.126Z,21.65
2023-03-22T03:44:26.386Z,20.27
2023-03-22T03:49:28.077Z,21.33
2023-03-22T03:54:29.514Z,21.42
2023-03-22T03:59:31.122Z,20.15
2023-03-22T04:04:34.793Z,21.90
2023-03-22T04:09:38.442Z,22.63
2023-03-22T04:14:39.890Z,22.60
2023-03-22T04:19:42.221Z,22.90
2023-03-22T04:24:49.975Z,21.33
2023-03-22T04:29:52.329Z,21.00
2023-03-22T04:34:53.748Z,20.17
2023-03-22T04:39:55.212Z,20.80
2023-03-22T04:44:56.641Z,21.95
2023-03-22T04:49:58.080Z,21.33
2023-03-22T04:54:59.516Z,20.00
2023-03-22T05:00:01.005Z,20.70
2023-03-22T05:05:02.462Z,20.27
2023-03-22T05:10:04.193Z,20.92
2023-03-22T05:15:06.685Z,21.00
2023-03-22T05:20:10.219Z,22.25
2023-03-22T05:25:11.740Z,23.13
2023-03-22T05:30:13.414Z,23.23
2023-03-22T05:35:14.953Z,22.08
2023-03-22T05:40:16.959Z,22.48
2023-03-22T05:45:18.866Z,22.92
2023-03-22T05:50:22.832Z,22.48
2023-03-22T05:55:24.755Z,22.50
2023-03-22T06:00:27.075Z,23.55
2023-03-22T06:05:30.306Z,24.45
2023-03-22T06:10:31.731Z,25.30
2023-03-22T06:15:33.186Z,22.60
2023-03-22T06:20:35.371Z,23.23
2023-03-22T06:25:37.156Z,23.50
2023-03-22T06:30:39.047Z,22.75
2023-03-22T06:35:40.898Z,22.30
2023-03-22T06:40:42.515Z,23.08
2023-03-22T06:45:46.925Z,24.00
2023-03-22T06:50:48.461Z,24.38
2023-03-22T06:55:49.931Z,22.60
2023-03-22T07:00:52.099Z,24.73
2023-03-22T07:05:53.577Z,23.23
2023-03-22T07:10:55.016Z,23.55
2023-03-22T07:15:57.775Z,22.75
2023-03-22T07:20:59.874Z,22.73
2023-03-22T07:26:01.545Z,22.13
2023-03-22T07:31:05.947Z,22.50
2023-03-22T07:36:09.004Z,20.15
2023-03-22T07:41:10.551Z,23.95
2023-03-22T07:46:12.261Z,22.85
2023-03-22T07:51:13.722Z,21.48
2023-03-22T07:56:15.392Z,23.63
2023-03-22T08:01:16.796Z,22.80
2023-03-22T08:06:21.544Z,21.90
2023-03-22T08:11:23.072Z,22.02
2023-03-22T08:16:24.607Z,20.92
2023-03-22T08:21:26.196Z,20.85
2023-03-22T08:26:27.837Z,19.90
2023-03-22T08:31:29.563Z,19.42
2023-03-22T08:36:31.098Z,19.27
2023-03-22T08:41:32.528Z,20.85
2023-03-22T08:46:34.083Z,19.25
2023-03-22T08:51:35.917Z,18.48
2023-03-22T08:56:37.916Z,19.77
2023-03-22T09:01:39.474Z,18.13
2023-03-22T09:06:44.202Z,18.58
2023-03-22T09:11:46.272Z,18.75
2023-03-22T09:16:47.884Z,19.90
2023-03-22T09:21:50.008Z,17.83
2023-03-22T09:26:51.578Z,18.30
2023-03-22T09:31:53.591Z,16.30
2023-03-22T09:36:56.735Z,15.63
2023-03-22T09:42:04.093Z,15.13
2023-03-22T09:47:08.254Z,15.48
2023-03-22T09:52:14.964Z,15.20
2023-03-22T09:57:29.866Z,14.05
2023-03-22T10:02:49.225Z,13.48
2023-03-22T10:07:59.964Z,12.43
2023-03-22T10:13:10.251Z,11.38
2023-03-22T10:18:18.049Z,13.18
2023-03-22T10:23:46.694Z,12.13
2023-03-22T10:28:59.337Z,11.88
2023-03-22T10:34:23.907Z,12.25
2023-03-22T10:39:29.348Z,13.00
2023-03-22T10:44:37.042Z,12.13
2023-03-22T10:49:54.758Z,13.50
2023-03-22T10:55:01.243Z,13.17
2023-03-22T11:00:11.375Z,13.80
2023-03-22T11:05:25.310Z,13.65
2023-03-22T11:10:29.560Z,11.30
2023-03-22T11:15:33.247Z,14.65
2023-03-22T11:20:35.058Z,13.70
2023-03-22T11:25:43.878Z,12.63
2023-03-22T11:36:18.216Z,14.05
2023-03-22T11:41:36.779Z,14.65
2023-03-22T11:46:39.116Z,11.98
2023-03-22T11:51:40.984Z,13.05
2023-03-22T11:56:45.539Z,13.10
2023-03-22T12:01:53.247Z,12.52
2023-03-22T12:06:58.261Z,10.15
2023-03-22T12:12:01.721Z,12.38
2023-03-22T12:17:11.176Z,10.10
2023-03-22T12:22:24.729Z,11.10
2023-03-22T12:27:38.727Z,10.98
2023-03-22T12:32:54.299Z,12.55
2023-03-22T12:37:58.314Z,11.02
2023-03-22T12:43:17.918Z,9.63
2023-03-22T12:48:28.059Z,9.63
2023-03-22T12:53:42.656Z,9.13
2023-03-22T12:58:49.845Z,8.05
2023-03-22T13:03:53.866Z,7.38
2023-03-22T13:09:16.234Z,7.85
2023-03-22T13:14:52.740Z,6.90
2023-03-22T13:20:20.078Z,7.40
2023-03-22T13:25:29.832Z,6.15
2023-03-22T13:30:49.417Z,5.78
2023-03-22T13:35:54.985Z,6.05
2023-03-22T13:41:14.783Z,5.97
2023-03-22T13:46:22.222Z,5.72
2023-03-22T13:51:32.139Z,6.13
